Wilson Heron — 9HJW9 — position and weather

sailwx.info

Track history (hours):
 
Tides and Currents Weather Stations Pressure Air Temp Water Temp Dewpoint Dewpoint Depression Visibility Wind Speed Wind Dir Waves Ship Positions

Wilson Heron

Last reported at 2014-Dec-22 22:30 UTC. Time now 2014-Dec-22 23:31 UTC.
Position N 55°38' E 015°23'.

Length 91 m; draft 5.7 m.

Type: Cargo ship. MMSI: 249075000.

Date/timePositionNaut miles runAvg speedWind from/ knotsBaromVisibWave heightAir tempDewpointWater temp
2014-Dec-22 22:30N 55°38' E 015°23'  
2014-Dec-16 23:28N 55°40' E 015°30'1011.4
2014-Dec-16 22:33N 55°35' E 015°14'1111.3
2014-Dec-16 21:34N 55°30' E 014°57'1211.8
2014-Dec-16 20:34N 55°24' E 014°39'1211.8
2014-Dec-16 19:34N 55°15' E 014°25'1110.7
2014-Dec-16 18:33N 55°07' E 014°14'1110.9
2014-Dec-16 17:34N 54°60' E 013°58'5811.0
2014-Dec-16 12:17N 54°38' E 012°26'910.5
2014-Dec-16 11:26N 54°31' E 012°16'9 9.6
2014-Dec-16 10:29N 54°25' E 012°04'1011.1
2014-Dec-16 09:33N 54°25' E 011°46'3911.2
2014-Dec-16 06:06N 54°34' E 010°41'611.0
2014-Dec-16 05:34N 54°33' E 010°31'1010.3
2014-Dec-16 04:33N 54°28' E 010°16'7 7.1
2014-Dec-16 03:33N 54°22' E 010°09'2 2.5
2014-Dec-16 02:33N 54°22' E 010°04'8 7.5
2014-Dec-16 01:32N 54°22' E 009°51'16 7.6
2014-Dec-15 23:28N 54°11' E 009°31'6 6.7
2014-Dec-15 22:33N 54°09' E 009°21'6 6.5
2014-Dec-15 21:33N 54°03' E 009°18'1 1.1
2014-Dec-15 20:33N 54°01' E 009°18'6 6.4
2014-Dec-15 19:34N 53°56' E 009°13'2 1.6
2014-Dec-15 18:33N 53°55' E 009°11'0 0.0
2014-Dec-15 17:34N 53°55' E 009°11'2 1.7
2014-Dec-15 16:33N 53°54' E 009°09'4 3.7
2014-Dec-15 15:33N 53°52' E 009°03'1111.3
2014-Dec-15 14:33N 53°52' E 008°44'1111.3
2014-Dec-15 13:33N 53°58' E 008°29'1110.5
2014-Dec-15 12:33N 53°59' E 008°11'1010.4
2014-Dec-15 11:34N 53°57' E 007°54'1010.0
2014-Dec-15 10:32N 53°55' E 007°37'31 9.5
2014-Dec-15 07:17N 53°47' E 006°46'19 9.5
2014-Dec-15 05:16N 53°42' E 006°14'7 9.8
2014-Dec-15 04:33N 53°40' E 006°03'1010.1
2014-Dec-15 03:33N 53°37' E 005°47'1010.5
2014-Dec-15 02:33N 53°34' E 005°30'1110.7
2014-Dec-15 01:34N 53°31' E 005°13'1110.9
2014-Dec-15 00:33N 53°27' E 004°56'1010.3
2014-Dec-14 23:34N 53°21' E 004°41'1410.9
2014-Dec-14 22:19N 53°09' E 004°30'810.7
2014-Dec-14 21:33N 53°02' E 004°24'1110.9
2014-Dec-14 20:33N 52°53' E 004°15'1110.9
2014-Dec-14 19:33N 52°44' E 004°04'1211.6
2014-Dec-14 18:33N 52°36' E 003°51'1411.6
2014-Dec-14 17:21N 52°25' E 003°36'6110.5
2014-Dec-14 11:32N 51°39' E 002°30'1111.0
2014-Dec-14 10:33N 51°31' E 002°19'1111.4
2014-Dec-14 09:33N 51°21' E 002°10'1211.6
2014-Dec-14 08:34N 51°12' E 001°59'1212.2
2014-Dec-14 07:33N 51°04' E 001°44'1010.3
2014-Dec-14 06:34N 50°56' E 001°33'267 8.6
2014-Dec-12 23:34N 50°37' W 005°28'  
Track history (hours):
 
Tides and Currents Weather Stations Pressure Air Temp Water Temp Dewpoint Dewpoint Depression Visibility Wind Speed Wind Dir Waves Ship Positions

Wilson Heron

Last reported at 2014-Dec-22 22:30 UTC. Time now 2014-Dec-22 23:31 UTC.
Position N 55°38' E 015°23'.

Length 91 m; draft 5.7 m.

Type: Cargo ship. MMSI: 249075000.

Date/timePositionNaut miles runAvg speedWind from/ knotsBaromVisibWave heightAir tempDewpointWater temp
2014-Dec-22 22:30N 55°38' E 015°23'  
2014-Dec-16 23:28N 55°40' E 015°30'1011.4
2014-Dec-16 22:33N 55°35' E 015°14'1111.3
2014-Dec-16 21:34N 55°30' E 014°57'1211.8
2014-Dec-16 20:34N 55°24' E 014°39'1211.8
2014-Dec-16 19:34N 55°15' E 014°25'1110.7
2014-Dec-16 18:33N 55°07' E 014°14'1110.9
2014-Dec-16 17:34N 54°60' E 013°58'5811.0
2014-Dec-16 12:17N 54°38' E 012°26'910.5
2014-Dec-16 11:26N 54°31' E 012°16'9 9.6
2014-Dec-16 10:29N 54°25' E 012°04'1011.1
2014-Dec-16 09:33N 54°25' E 011°46'3911.2
2014-Dec-16 06:06N 54°34' E 010°41'611.0
2014-Dec-16 05:34N 54°33' E 010°31'1010.3
2014-Dec-16 04:33N 54°28' E 010°16'7 7.1
2014-Dec-16 03:33N 54°22' E 010°09'2 2.5
2014-Dec-16 02:33N 54°22' E 010°04'8 7.5
2014-Dec-16 01:32N 54°22' E 009°51'16 7.6
2014-Dec-15 23:28N 54°11' E 009°31'6 6.7
2014-Dec-15 22:33N 54°09' E 009°21'6 6.5
2014-Dec-15 21:33N 54°03' E 009°18'1 1.1
2014-Dec-15 20:33N 54°01' E 009°18'6 6.4
2014-Dec-15 19:34N 53°56' E 009°13'2 1.6
2014-Dec-15 18:33N 53°55' E 009°11'0 0.0
2014-Dec-15 17:34N 53°55' E 009°11'2 1.7
2014-Dec-15 16:33N 53°54' E 009°09'4 3.7
2014-Dec-15 15:33N 53°52' E 009°03'1111.3
2014-Dec-15 14:33N 53°52' E 008°44'1111.3
2014-Dec-15 13:33N 53°58' E 008°29'1110.5
2014-Dec-15 12:33N 53°59' E 008°11'1010.4
2014-Dec-15 11:34N 53°57' E 007°54'1010.0
2014-Dec-15 10:32N 53°55' E 007°37'31 9.5
2014-Dec-15 07:17N 53°47' E 006°46'19 9.5
2014-Dec-15 05:16N 53°42' E 006°14'7 9.8
2014-Dec-15 04:33N 53°40' E 006°03'1010.1
2014-Dec-15 03:33N 53°37' E 005°47'1010.5
2014-Dec-15 02:33N 53°34' E 005°30'1110.7
2014-Dec-15 01:34N 53°31' E 005°13'1110.9
2014-Dec-15 00:33N 53°27' E 004°56'1010.3
2014-Dec-14 23:34N 53°21' E 004°41'1410.9
2014-Dec-14 22:19N 53°09' E 004°30'810.7
2014-Dec-14 21:33N 53°02' E 004°24'1110.9
2014-Dec-14 20:33N 52°53' E 004°15'1110.9
2014-Dec-14 19:33N 52°44' E 004°04'1211.6
2014-Dec-14 18:33N 52°36' E 003°51'1411.6
2014-Dec-14 17:21N 52°25' E 003°36'6110.5
2014-Dec-14 11:32N 51°39' E 002°30'1111.0
2014-Dec-14 10:33N 51°31' E 002°19'1111.4
2014-Dec-14 09:33N 51°21' E 002°10'1211.6
2014-Dec-14 08:34N 51°12' E 001°59'1212.2
2014-Dec-14 07:33N 51°04' E 001°44'1010.3
2014-Dec-14 06:34N 50°56' E 001°33'267 8.6
2014-Dec-12 23:34N 50°37' W 005°28'  

Dump ship's entire track history